Rushland, Pennsylvania
Current Conditions -  °F | °C
As of 9:54 PM on Saturday 22 Nov 2014 (Local Time) from KDYL Reporting Station
Overcast Overcast  
Wind Chill: 36°   Ceiling: 11000
Heat Index: 40°   Visibility: 10mi
Dew Point: 19°   Wind: 6mph
Humidity: 43%   Direction: 220°SW
Pressure: 30.22"   Gusts: NA
Location:  40.26°N, 75.03°W
Report Text: KDYL 230254Z AUTO 22005KT 10SM OVC110 04/M07 A3022 RMK AO2 SLP242 T00441072 56012
Loading
Personal Weather Stations






























Interactive Weather Map New forecast layout! Learn more

10-Day Weather Forecast

Advertisements
Track Severe Weather on mobile